createdAt,value
2018-07-05T00:00:17.887Z,23.70
2018-07-05T00:02:57.611Z,23.70
2018-07-05T00:05:37.236Z,23.70
2018-07-05T00:08:16.831Z,23.70
2018-07-05T00:10:56.547Z,23.80
2018-07-05T00:13:36.322Z,23.80
2018-07-05T00:16:15.990Z,23.80
2018-07-05T00:18:55.655Z,23.80
2018-07-05T00:21:35.274Z,23.80
2018-07-05T00:24:15.079Z,23.80
2018-07-05T00:26:54.740Z,23.80
2018-07-05T00:29:34.400Z,23.70
2018-07-05T00:32:14.149Z,23.70
2018-07-05T00:34:53.787Z,23.60
2018-07-05T00:37:33.409Z,23.60
2018-07-05T00:40:13.064Z,23.60
2018-07-05T00:42:52.638Z,23.60
2018-07-05T00:45:32.226Z,23.60
2018-07-05T00:48:12.036Z,23.60
2018-07-05T00:50:51.776Z,23.60
2018-07-05T00:56:04.996Z,23.60
2018-07-05T00:58:44.687Z,23.60
2018-07-05T01:01:24.399Z,23.60
2018-07-05T01:04:03.983Z,23.60
2018-07-05T01:06:43.647Z,23.60
2018-07-05T01:09:23.468Z,23.50
2018-07-05T01:12:03.111Z,23.50
2018-07-05T01:14:42.779Z,23.50
2018-07-05T01:17:22.430Z,23.50
2018-07-05T01:20:02.028Z,23.50
2018-07-05T01:22:41.627Z,23.50
2018-07-05T01:25:21.346Z,23.50
2018-07-05T01:28:00.886Z,23.40
2018-07-05T01:30:40.593Z,23.40
2018-07-05T01:33:21.268Z,23.40
2018-07-05T01:36:00.895Z,23.40
2018-07-05T01:38:40.588Z,23.50
2018-07-05T01:41:20.131Z,23.40
2018-07-05T01:44:00.006Z,23.40
2018-07-05T01:46:39.518Z,23.40
2018-07-05T01:49:18.981Z,23.40
2018-07-05T01:51:58.759Z,23.30
2018-07-05T01:54:38.326Z,23.30
2018-07-05T01:57:17.848Z,23.30
2018-07-05T01:59:57.655Z,23.30
2018-07-05T02:02:37.242Z,23.30
2018-07-05T02:05:16.953Z,23.20
2018-07-05T02:07:56.656Z,23.20
2018-07-05T02:10:36.262Z,23.10
2018-07-05T02:13:16.058Z,23.10
2018-07-05T02:15:56.234Z,23.10
2018-07-05T02:18:35.967Z,23.10
2018-07-05T02:21:15.441Z,23.10
2018-07-05T02:23:55.082Z,23.20
2018-07-05T02:26:34.785Z,23.10
2018-07-05T02:29:14.274Z,23.10
2018-07-05T02:31:54.239Z,23.10
2018-07-05T02:34:33.941Z,23.10
2018-07-05T02:37:19.250Z,23.10
2018-07-05T02:39:58.839Z,23.10
2018-07-05T02:42:38.427Z,23.10
2018-07-05T02:45:18.055Z,23.10
2018-07-05T02:47:57.852Z,23.10
2018-07-05T02:50:37.679Z,23.00
2018-07-05T02:53:17.331Z,23.00
2018-07-05T02:55:56.926Z,23.00
2018-07-05T02:58:36.542Z,23.00
2018-07-05T03:01:16.156Z,22.90
2018-07-05T03:03:55.781Z,22.90
2018-07-05T03:06:35.733Z,22.90
2018-07-05T03:09:15.205Z,22.90
2018-07-05T03:11:54.756Z,22.90
2018-07-05T03:14:34.895Z,22.90
2018-07-05T03:17:14.435Z,22.90
2018-07-05T03:19:53.934Z,22.80
2018-07-05T03:22:33.441Z,22.80
2018-07-05T03:25:13.464Z,22.70
2018-07-05T03:27:52.852Z,22.70
2018-07-05T03:30:32.858Z,22.70
2018-07-05T03:33:12.561Z,22.70
2018-07-05T03:35:52.001Z,22.70
2018-07-05T03:38:31.888Z,22.70
2018-07-05T03:41:11.399Z,22.70
2018-07-05T03:43:51.070Z,22.70
2018-07-05T03:46:30.690Z,22.60
2018-07-05T03:49:10.502Z,22.60
2018-07-05T03:51:50.250Z,22.70
2018-07-05T03:54:29.847Z,22.70
2018-07-05T03:57:09.670Z,22.70
2018-07-05T03:59:50.295Z,22.70
2018-07-05T04:02:29.965Z,22.60
2018-07-05T04:05:09.549Z,22.70
2018-07-05T04:07:49.158Z,22.70
2018-07-05T04:10:28.768Z,22.80
2018-07-05T04:13:08.394Z,22.80
2018-07-05T04:15:48.120Z,22.80
2018-07-05T04:18:27.754Z,22.80
2018-07-05T04:21:07.482Z,22.90
2018-07-05T04:23:46.995Z,22.90
2018-07-05T04:26:26.636Z,22.80
2018-07-05T04:29:06.232Z,22.70
2018-07-05T04:31:45.934Z,22.60
2018-07-05T04:34:25.597Z,22.60
2018-07-05T04:37:05.226Z,22.60
2018-07-05T04:39:44.774Z,22.60
2018-07-05T04:42:24.290Z,22.70
2018-07-05T04:45:03.836Z,22.70
2018-07-05T04:47:43.550Z,22.80
2018-07-05T04:50:23.231Z,22.80
2018-07-05T04:53:02.830Z,22.80
2018-07-05T04:55:42.495Z,22.80
2018-07-05T04:58:22.202Z,22.80
2018-07-05T05:01:01.780Z,22.80
2018-07-05T05:03:41.483Z,22.90
2018-07-05T05:06:21.167Z,23.00
2018-07-05T05:09:00.757Z,23.00
2018-07-05T05:11:40.286Z,23.00
2018-07-05T05:14:19.937Z,23.00
2018-07-05T05:16:59.546Z,23.00
2018-07-05T05:19:40.462Z,23.00
2018-07-05T05:22:20.019Z,23.10
2018-07-05T05:24:59.746Z,23.10
2018-07-05T05:27:39.457Z,23.20
2018-07-05T05:30:19.105Z,23.30
2018-07-05T05:32:58.818Z,23.30
2018-07-05T05:35:38.567Z,23.30
2018-07-05T05:38:18.226Z,23.20
2018-07-05T05:40:57.846Z,23.10
2018-07-05T05:43:37.334Z,23.10
2018-07-05T05:46:16.981Z,23.10
2018-07-05T05:48:56.819Z,23.20
2018-07-05T05:51:36.350Z,23.40
2018-07-05T05:54:16.026Z,23.60
2018-07-05T05:56:55.792Z,23.70
2018-07-05T05:59:35.422Z,23.70
2018-07-05T06:02:15.277Z,23.80
2018-07-05T06:04:54.951Z,23.90
2018-07-05T06:07:34.656Z,24.00
2018-07-05T06:10:14.512Z,24.10
2018-07-05T06:12:54.619Z,24.20
2018-07-05T06:15:34.244Z,24.20
2018-07-05T06:18:14.075Z,24.30
2018-07-05T06:20:53.982Z,24.40
2018-07-05T06:23:33.894Z,24.40
2018-07-05T06:26:13.663Z,24.30
2018-07-05T06:28:53.507Z,24.30
2018-07-05T06:31:33.340Z,24.20
2018-07-05T06:34:13.168Z,24.30
2018-07-05T06:36:53.042Z,24.30
2018-07-05T06:39:32.937Z,24.40
2018-07-05T06:42:12.946Z,24.40
2018-07-05T06:44:52.574Z,24.50
2018-07-05T06:47:32.151Z,24.50
2018-07-05T06:50:11.742Z,24.50
2018-07-05T06:52:51.448Z,24.50
2018-07-05T06:55:31.111Z,24.50
2018-07-05T06:58:10.974Z,24.50
2018-07-05T07:00:50.844Z,24.50
2018-07-05T07:03:30.534Z,24.50
2018-07-05T07:06:10.190Z,24.40
2018-07-05T07:08:49.968Z,24.40
2018-07-05T07:11:29.375Z,24.50
2018-07-05T07:14:08.988Z,24.40
2018-07-05T07:16:48.644Z,24.40
2018-07-05T07:19:28.308Z,24.40
2018-07-05T07:22:08.027Z,24.50
2018-07-05T07:24:47.591Z,24.50
2018-07-05T07:27:27.401Z,24.50
2018-07-05T07:30:07.154Z,24.60
2018-07-05T07:32:46.804Z,24.80
2018-07-05T07:35:26.383Z,24.90
2018-07-05T07:38:06.008Z,25.10
2018-07-05T07:40:45.533Z,25.20
2018-07-05T07:43:12.746Z,25.50
2018-07-05T07:45:39.979Z,25.70
2018-07-05T07:48:07.276Z,25.90
2018-07-05T07:50:34.682Z,26.00
2018-07-05T07:53:01.909Z,25.90
2018-07-05T07:55:29.131Z,26.10
2018-07-05T07:57:56.375Z,26.30
2018-07-05T08:00:23.570Z,26.40
2018-07-05T08:02:50.787Z,26.40
2018-07-05T08:05:17.987Z,26.40
2018-07-05T08:07:45.234Z,26.70
2018-07-05T08:10:12.433Z,26.70
2018-07-05T08:12:39.658Z,27.00
2018-07-05T08:15:07.008Z,27.30
2018-07-05T08:17:34.254Z,27.50
2018-07-05T08:20:01.489Z,27.60
2018-07-05T08:24:56.246Z,27.50
2018-07-05T08:27:23.447Z,27.40
2018-07-05T08:32:18.235Z,27.00
2018-07-05T08:34:45.443Z,27.00
2018-07-05T08:37:12.898Z,27.20
2018-07-05T08:39:40.082Z,27.50
2018-07-05T08:42:07.315Z,27.40
2018-07-05T08:44:34.613Z,27.30
2018-07-05T08:47:01.838Z,27.50
2018-07-05T08:49:29.050Z,27.50
2018-07-05T08:51:56.358Z,27.40
2018-07-05T08:54:23.557Z,27.50
2018-07-05T08:56:50.960Z,27.40
2018-07-05T08:59:18.171Z,27.30
2018-07-05T09:01:45.478Z,27.20
2018-07-05T09:04:12.718Z,27.10
2018-07-05T09:06:39.938Z,27.20
2018-07-05T09:09:07.166Z,27.40
2018-07-05T09:11:34.362Z,27.80
2018-07-05T09:14:01.620Z,28.10
2018-07-05T09:16:28.826Z,28.30
2018-07-05T09:18:56.099Z,28.30
2018-07-05T09:21:23.301Z,28.20
2018-07-05T09:23:50.597Z,28.20
2018-07-05T09:26:17.739Z,28.10
2018-07-05T09:28:45.012Z,28.20
2018-07-05T09:31:12.254Z,28.40
2018-07-05T09:33:39.484Z,28.50
2018-07-05T09:38:34.230Z,29.80
2018-07-05T09:41:01.468Z,28.30
2018-07-05T09:43:28.694Z,28.50
2018-07-05T09:45:55.929Z,28.50
2018-07-05T09:48:23.186Z,28.60
2018-07-05T09:50:50.406Z,28.50
2018-07-05T09:53:17.661Z,28.60
2018-07-05T09:55:44.927Z,28.60
2018-07-05T09:58:12.168Z,28.50
2018-07-05T10:00:44.885Z,28.50
2018-07-05T10:03:12.116Z,28.60
2018-07-05T10:05:39.404Z,28.70
2018-07-05T10:08:06.620Z,28.80
2018-07-05T10:10:33.826Z,28.60
2018-07-05T10:13:01.202Z,28.30
2018-07-05T10:15:28.349Z,28.10
2018-07-05T10:17:55.583Z,28.30
2018-07-05T10:20:22.820Z,28.30
2018-07-05T10:22:50.052Z,28.40
2018-07-05T10:25:18.299Z,28.50
2018-07-05T10:27:45.517Z,28.60
2018-07-05T10:30:25.298Z,28.30
2018-07-05T10:33:04.845Z,28.00
2018-07-05T10:35:32.073Z,27.90
2018-07-05T10:38:01.294Z,27.80
2018-07-05T10:40:42.099Z,27.80
2018-07-05T10:43:21.760Z,27.90
2018-07-05T10:46:01.724Z,27.90
2018-07-05T10:48:41.314Z,27.80
2018-07-05T10:51:21.791Z,28.10
2018-07-05T10:56:34.995Z,28.10
2018-07-05T10:59:14.728Z,28.10
2018-07-05T11:01:54.362Z,28.10
2018-07-05T11:04:34.166Z,28.20
2018-07-05T11:07:13.798Z,28.40
2018-07-05T11:09:53.512Z,28.70
2018-07-05T11:12:33.304Z,28.90
2018-07-05T11:15:12.950Z,29.00
2018-07-05T11:17:52.614Z,29.00
2018-07-05T11:20:32.327Z,28.90
2018-07-05T11:23:12.150Z,29.00
2018-07-05T11:25:52.587Z,29.20
2018-07-05T11:28:32.265Z,29.10
2018-07-05T11:31:11.998Z,29.20
2018-07-05T11:33:51.562Z,29.40
2018-07-05T11:36:31.316Z,29.50
2018-07-05T11:39:11.062Z,29.70
2018-07-05T11:41:50.643Z,29.60
2018-07-05T11:44:30.439Z,29.50
2018-07-05T11:47:10.118Z,29.50
2018-07-05T11:49:49.571Z,29.50
2018-07-05T11:52:29.450Z,29.60
2018-07-05T11:55:10.113Z,29.70
2018-07-05T11:57:49.820Z,29.40
2018-07-05T12:00:29.436Z,29.10
2018-07-05T12:03:08.982Z,29.00
2018-07-05T12:05:48.520Z,29.00
2018-07-05T12:08:28.301Z,29.20
2018-07-05T12:11:08.138Z,29.30
2018-07-05T12:13:49.052Z,29.30
2018-07-05T12:16:28.827Z,29.40
2018-07-05T12:19:08.470Z,29.60
2018-07-05T12:21:48.239Z,29.60
2018-07-05T12:24:27.866Z,29.90
2018-07-05T12:27:07.398Z,30.10
2018-07-05T12:29:47.026Z,30.10
2018-07-05T12:35:00.202Z,29.70
2018-07-05T12:37:39.883Z,29.60
2018-07-05T12:40:19.485Z,29.50
2018-07-05T12:42:59.237Z,29.70
2018-07-05T12:45:38.803Z,29.70
2018-07-05T12:48:18.372Z,29.80
2018-07-05T12:50:57.845Z,29.60
2018-07-05T12:53:37.547Z,29.40
2018-07-05T12:56:17.265Z,29.40
2018-07-05T12:58:56.779Z,29.20
2018-07-05T13:01:36.675Z,28.80
2018-07-05T13:04:16.469Z,28.50
2018-07-05T13:06:56.136Z,28.30
2018-07-05T13:09:35.659Z,28.10
2018-07-05T13:12:15.265Z,28.00
2018-07-05T13:14:54.842Z,27.90
2018-07-05T13:17:34.526Z,27.80
2018-07-05T13:20:14.217Z,27.80
2018-07-05T13:22:53.857Z,27.90
2018-07-05T13:25:33.606Z,27.80
2018-07-05T13:28:13.303Z,28.00
2018-07-05T13:30:52.846Z,28.10
2018-07-05T13:33:32.534Z,28.30
2018-07-05T13:36:12.224Z,28.50
2018-07-05T13:38:51.873Z,28.50
2018-07-05T13:41:31.532Z,28.50
2018-07-05T13:44:11.263Z,28.60
2018-07-05T13:46:50.973Z,28.80
2018-07-05T13:49:30.592Z,29.00
2018-07-05T13:52:10.251Z,28.90
2018-07-05T13:54:49.868Z,29.10
2018-07-05T13:57:29.540Z,28.90
2018-07-05T14:00:09.266Z,28.80
2018-07-05T14:02:48.828Z,28.70
2018-07-05T14:05:28.375Z,28.70
2018-07-05T14:08:09.144Z,28.60
2018-07-05T14:10:48.672Z,28.70
2018-07-05T14:13:28.718Z,28.90
2018-07-05T14:16:08.266Z,28.90
2018-07-05T14:18:48.072Z,28.80
2018-07-05T14:21:27.617Z,28.80
2018-07-05T14:24:07.299Z,28.90
2018-07-05T14:26:46.820Z,28.90
2018-07-05T14:29:26.457Z,28.80
2018-07-05T14:34:39.799Z,28.70
2018-07-05T14:37:19.645Z,28.80
2018-07-05T14:39:59.266Z,28.80
2018-07-05T14:42:38.840Z,28.70
2018-07-05T14:45:18.811Z,28.70
2018-07-05T14:47:58.591Z,29.00
2018-07-05T14:50:38.298Z,29.30
2018-07-05T14:53:18.130Z,29.30
2018-07-05T14:55:57.655Z,29.10
2018-07-05T14:58:37.306Z,29.00
2018-07-05T15:01:17.024Z,28.80
2018-07-05T15:03:56.816Z,28.80
2018-07-05T15:06:36.463Z,28.80
2018-07-05T15:09:16.072Z,28.90
2018-07-05T15:11:56.686Z,29.10
2018-07-05T15:14:36.238Z,29.20
2018-07-05T15:17:16.089Z,29.10
2018-07-05T15:19:55.689Z,29.10
2018-07-05T15:22:35.254Z,29.00
2018-07-05T15:25:14.796Z,29.00
2018-07-05T15:27:54.565Z,28.90
2018-07-05T15:30:34.329Z,28.90
2018-07-05T15:33:14.028Z,28.70
2018-07-05T15:35:53.638Z,28.70
2018-07-05T15:38:33.326Z,28.70
2018-07-05T15:41:12.718Z,28.60
2018-07-05T15:43:52.373Z,28.50
2018-07-05T15:46:32.154Z,28.50
2018-07-05T15:49:11.935Z,28.50
2018-07-05T15:51:51.691Z,28.70
2018-07-05T15:54:31.327Z,28.90
2018-07-05T15:57:10.958Z,29.10
2018-07-05T15:59:50.654Z,29.00
2018-07-05T16:02:30.343Z,29.00
2018-07-05T16:05:10.080Z,28.90
2018-07-05T16:07:49.625Z,28.80
2018-07-05T16:10:29.242Z,28.70
2018-07-05T16:13:08.912Z,28.80
2018-07-05T16:18:23.013Z,29.00
2018-07-05T16:21:02.639Z,29.10
2018-07-05T16:23:42.287Z,29.00
2018-07-05T16:26:21.887Z,28.80
2018-07-05T16:29:01.528Z,28.90
2018-07-05T16:31:41.335Z,28.90
2018-07-05T16:34:20.972Z,28.90
2018-07-05T16:37:01.229Z,29.00
2018-07-05T16:42:14.696Z,29.00
2018-07-05T16:44:54.306Z,28.80
2018-07-05T16:47:33.995Z,28.80
2018-07-05T16:50:15.753Z,28.70
2018-07-05T16:52:55.041Z,28.80
2018-07-05T16:55:34.591Z,28.50
2018-07-05T16:58:14.842Z,28.60
2018-07-05T17:00:54.525Z,28.50
2018-07-05T17:03:34.075Z,28.40
2018-07-05T17:06:13.750Z,28.60
2018-07-05T17:08:53.478Z,28.70
2018-07-05T17:11:32.970Z,28.80
2018-07-05T17:14:12.484Z,28.90
2018-07-05T17:16:52.226Z,28.90
2018-07-05T17:19:31.970Z,28.70
2018-07-05T17:22:11.699Z,28.70
2018-07-05T17:24:52.292Z,28.70
2018-07-05T17:27:32.082Z,28.60
2018-07-05T17:30:11.790Z,28.50
2018-07-05T17:32:51.492Z,28.30
2018-07-05T17:35:32.098Z,28.30
2018-07-05T17:38:11.819Z,28.40
2018-07-05T17:40:51.635Z,28.50
2018-07-05T17:43:31.161Z,28.60
2018-07-05T17:46:10.784Z,28.40
2018-07-05T17:48:50.480Z,28.40
2018-07-05T17:51:30.042Z,28.40
2018-07-05T17:54:09.763Z,28.30
2018-07-05T17:56:49.637Z,28.20
2018-07-05T17:59:29.210Z,28.30
2018-07-05T18:02:08.909Z,28.40
2018-07-05T18:04:48.408Z,28.40
2018-07-05T18:07:28.281Z,28.30
2018-07-05T18:10:07.950Z,28.20
2018-07-05T18:12:47.728Z,28.00
2018-07-05T18:15:27.431Z,27.90
2018-07-05T18:18:07.061Z,27.80
2018-07-05T18:20:46.895Z,27.70
2018-07-05T18:23:26.755Z,27.70
2018-07-05T18:26:06.601Z,27.70
2018-07-05T18:28:46.374Z,27.60
2018-07-05T18:31:26.066Z,27.60
2018-07-05T18:34:05.660Z,27.60
2018-07-05T18:36:45.398Z,27.60
2018-07-05T18:39:25.063Z,27.60
2018-07-05T18:42:04.748Z,27.60
2018-07-05T18:44:44.628Z,27.60
2018-07-05T18:47:24.274Z,27.60
2018-07-05T18:50:03.798Z,27.50
2018-07-05T18:52:43.420Z,27.40
2018-07-05T18:55:23.018Z,27.40
2018-07-05T18:58:02.785Z,27.40
2018-07-05T19:00:42.735Z,27.40
2018-07-05T19:03:22.531Z,27.40
2018-07-05T19:06:03.090Z,27.40
2018-07-05T19:08:42.667Z,27.30
2018-07-05T19:11:22.300Z,27.20
2018-07-05T19:14:01.839Z,27.00
2018-07-05T19:16:41.567Z,27.00
2018-07-05T19:19:21.091Z,27.00
2018-07-05T19:22:00.738Z,26.90
2018-07-05T19:24:40.542Z,26.80
2018-07-05T19:27:20.196Z,26.70
2018-07-05T19:29:59.907Z,26.70
2018-07-05T19:32:40.402Z,26.70
2018-07-05T19:35:20.144Z,26.70
2018-07-05T19:38:00.704Z,26.60
2018-07-05T19:40:40.431Z,26.50
2018-07-05T19:43:20.171Z,26.50
2018-07-05T19:45:59.877Z,26.50
2018-07-05T19:48:39.638Z,26.50
2018-07-05T19:51:19.330Z,26.40
2018-07-05T19:53:58.958Z,26.30
2018-07-05T19:56:38.550Z,26.30
2018-07-05T19:59:18.177Z,26.20
2018-07-05T20:01:57.794Z,26.20
2018-07-05T20:04:37.468Z,26.20
2018-07-05T20:07:19.084Z,26.10
2018-07-05T20:09:59.793Z,26.10
2018-07-05T20:12:39.377Z,26.10
2018-07-05T20:15:19.243Z,26.00
2018-07-05T20:17:58.981Z,26.00
2018-07-05T20:20:38.595Z,25.90
2018-07-05T20:23:18.216Z,25.90
2018-07-05T20:25:57.983Z,25.90
2018-07-05T20:28:37.446Z,25.80
2018-07-05T20:31:16.968Z,25.80
2018-07-05T20:33:56.655Z,25.70
2018-07-05T20:36:36.534Z,25.70
2018-07-05T20:39:16.320Z,25.70
2018-07-05T20:41:55.832Z,25.70
2018-07-05T20:44:35.422Z,25.70
2018-07-05T20:47:15.088Z,25.60
2018-07-05T20:49:54.746Z,25.50
2018-07-05T20:52:34.227Z,25.50
2018-07-05T20:55:14.064Z,25.40
2018-07-05T20:57:53.674Z,25.40
2018-07-05T21:00:33.433Z,25.30
2018-07-05T21:05:46.662Z,25.20
2018-07-05T21:08:26.463Z,25.20
2018-07-05T21:11:06.165Z,25.10
2018-07-05T21:13:45.728Z,25.10
2018-07-05T21:16:25.498Z,25.10
2018-07-05T21:19:05.252Z,25.00
2018-07-05T21:21:44.914Z,24.90
2018-07-05T21:24:24.566Z,24.90
2018-07-05T21:27:04.231Z,24.90
2018-07-05T21:29:44.105Z,24.90
2018-07-05T21:32:23.846Z,24.80
2018-07-05T21:35:03.499Z,24.70
2018-07-05T21:37:43.217Z,24.70
2018-07-05T21:40:22.924Z,24.70
2018-07-05T21:43:02.533Z,24.70
2018-07-05T21:45:42.297Z,24.70
2018-07-05T21:48:21.816Z,24.70
2018-07-05T21:51:01.442Z,24.70
2018-07-05T21:53:41.158Z,24.70
2018-07-05T21:58:54.474Z,24.60
2018-07-05T22:01:34.097Z,24.60
2018-07-05T22:04:13.800Z,24.60
2018-07-05T22:06:53.228Z,24.60
2018-07-05T22:09:34.064Z,24.50
2018-07-05T22:12:13.552Z,24.50
2018-07-05T22:14:53.120Z,24.50
2018-07-05T22:17:38.430Z,24.40
2018-07-05T22:20:23.503Z,24.40
2018-07-05T22:23:08.667Z,24.30
2018-07-05T22:25:53.914Z,24.30
2018-07-05T22:28:39.047Z,24.20
2018-07-05T22:31:24.258Z,24.20
2018-07-05T22:34:03.845Z,24.20
2018-07-05T22:36:43.469Z,24.10
2018-07-05T22:39:23.639Z,24.10
2018-07-05T22:42:03.259Z,24.00
2018-07-05T22:44:42.918Z,24.00
2018-07-05T22:47:22.526Z,23.90
2018-07-05T22:50:02.265Z,23.90
2018-07-05T22:52:41.834Z,23.80
2018-07-05T22:55:21.497Z,23.80
2018-07-05T22:58:01.095Z,23.80
2018-07-05T23:00:40.705Z,23.80
2018-07-05T23:03:20.453Z,23.70
2018-07-05T23:08:33.844Z,24.20
2018-07-05T23:11:13.609Z,23.70
2018-07-05T23:13:53.258Z,23.60
2018-07-05T23:16:32.883Z,23.60
2018-07-05T23:19:12.758Z,23.60
2018-07-05T23:21:52.552Z,23.60
2018-07-05T23:24:32.153Z,23.60
2018-07-05T23:27:11.656Z,23.60
2018-07-05T23:29:51.379Z,23.50
2018-07-05T23:32:31.127Z,23.50
2018-07-05T23:35:11.035Z,23.40
2018-07-05T23:37:50.722Z,23.30
2018-07-05T23:40:30.528Z,23.10
2018-07-05T23:43:10.279Z,23.10
2018-07-05T23:45:50.002Z,22.90
2018-07-05T23:48:29.438Z,22.80
2018-07-05T23:51:09.047Z,22.80
2018-07-05T23:53:48.776Z,22.70
2018-07-05T23:56:28.283Z,22.70
2018-07-05T23:59:07.693Z,22.60
